sensor_id;sensor_type;location;lat;lon;timestamp;P1;durP1;ratioP1;P2;durP2;ratioP2
4389;SDS011;2209;48.982;8.406;2023-10-19T00:01:24;18.17;;;16.37;;
4389;SDS011;2209;48.982;8.406;2023-10-19T00:03:46;20.10;;;16.90;;
4389;SDS011;2209;48.982;8.406;2023-10-19T00:06:10;20.17;;;17.87;;
4389;SDS011;2209;48.982;8.406;2023-10-19T00:08:33;17.90;;;16.10;;
4389;SDS011;2209;48.982;8.406;2023-10-19T00:11:01;18.63;;;16.63;;
4389;SDS011;2209;48.982;8.406;2023-10-19T00:13:23;18.97;;;16.70;;
4389;SDS011;2209;48.982;8.406;2023-10-19T00:15:45;19.40;;;17.30;;
4389;SDS011;2209;48.982;8.406;2023-10-19T00:18:12;21.17;;;17.30;;
4389;SDS011;2209;48.982;8.406;2023-10-19T00:20:45;17.80;;;15.90;;
4389;SDS011;2209;48.982;8.406;2023-10-19T00:23:12;20.67;;;17.90;;
4389;SDS011;2209;48.982;8.406;2023-10-19T00:25:40;18.10;;;16.20;;
4389;SDS011;2209;48.982;8.406;2023-10-19T00:28:02;21.40;;;17.30;;
4389;SDS011;2209;48.982;8.406;2023-10-19T00:30:25;18.50;;;16.50;;
4389;SDS011;2209;48.982;8.406;2023-10-19T00:32:51;18.67;;;16.13;;
4389;SDS011;2209;48.982;8.406;2023-10-19T00:35:14;19.73;;;17.67;;
4389;SDS011;2209;48.982;8.406;2023-10-19T00:37:48;16.70;;;15.00;;
4389;SDS011;2209;48.982;8.406;2023-10-19T00:40:11;18.70;;;16.70;;
4389;SDS011;2209;48.982;8.406;2023-10-19T00:42:41;17.10;;;15.10;;
4389;SDS011;2209;48.982;8.406;2023-10-19T00:45:10;17.87;;;16.17;;
4389;SDS011;2209;48.982;8.406;2023-10-19T00:47:33;18.00;;;16.10;;
4389;SDS011;2209;48.982;8.406;2023-10-19T00:50:00;21.70;;;16.67;;
4389;SDS011;2209;48.982;8.406;2023-10-19T00:52:25;17.93;;;16.07;;
4389;SDS011;2209;48.982;8.406;2023-10-19T00:54:52;17.20;;;15.50;;
4389;SDS011;2209;48.982;8.406;2023-10-19T00:57:19;17.63;;;15.80;;
4389;SDS011;2209;48.982;8.406;2023-10-19T00:59:44;17.30;;;15.33;;
4389;SDS011;2209;48.982;8.406;2023-10-19T01:02:08;19.00;;;15.43;;
4389;SDS011;2209;48.982;8.406;2023-10-19T01:04:40;19.00;;;14.20;;
4389;SDS011;2209;48.982;8.406;2023-10-19T01:07:05;16.50;;;14.77;;
4389;SDS011;2209;48.982;8.406;2023-10-19T01:09:32;18.23;;;15.60;;
4389;SDS011;2209;48.982;8.406;2023-10-19T01:11:56;17.67;;;15.87;;
4389;SDS011;2209;48.982;8.406;2023-10-19T01:14:22;17.10;;;15.30;;
4389;SDS011;2209;48.982;8.406;2023-10-19T01:16:49;16.40;;;14.70;;
4389;SDS011;2209;48.982;8.406;2023-10-19T01:19:11;16.77;;;15.07;;
4389;SDS011;2209;48.982;8.406;2023-10-19T01:21:33;16.37;;;14.67;;
4389;SDS011;2209;48.982;8.406;2023-10-19T01:23:59;15.60;;;14.00;;
4389;SDS011;2209;48.982;8.406;2023-10-19T01:26:21;15.20;;;13.80;;
4389;SDS011;2209;48.982;8.406;2023-10-19T01:28:46;17.57;;;14.73;;
4389;SDS011;2209;48.982;8.406;2023-10-19T01:31:12;17.23;;;14.43;;
4389;SDS011;2209;48.982;8.406;2023-10-19T01:33:38;16.23;;;14.53;;
4389;SDS011;2209;48.982;8.406;2023-10-19T01:36:00;16.73;;;14.90;;
4389;SDS011;2209;48.982;8.406;2023-10-19T01:38:36;14.50;;;12.90;;
4389;SDS011;2209;48.982;8.406;2023-10-19T01:40:59;14.37;;;12.70;;
4389;SDS011;2209;48.982;8.406;2023-10-19T01:43:21;13.20;;;12.00;;
4389;SDS011;2209;48.982;8.406;2023-10-19T01:45:45;14.03;;;12.63;;
4389;SDS011;2209;48.982;8.406;2023-10-19T01:48:08;13.13;;;11.90;;
4389;SDS011;2209;48.982;8.406;2023-10-19T01:50:29;14.43;;;12.60;;
4389;SDS011;2209;48.982;8.406;2023-10-19T01:52:51;12.60;;;11.50;;
4389;SDS011;2209;48.982;8.406;2023-10-19T01:55:13;14.23;;;12.83;;
4389;SDS011;2209;48.982;8.406;2023-10-19T01:57:42;12.87;;;11.53;;
4389;SDS011;2209;48.982;8.406;2023-10-19T02:00:06;12.43;;;11.33;;
4389;SDS011;2209;48.982;8.406;2023-10-19T02:02:31;12.93;;;11.63;;
4389;SDS011;2209;48.982;8.406;2023-10-19T02:04:52;12.67;;;11.57;;
4389;SDS011;2209;48.982;8.406;2023-10-19T02:07:16;11.90;;;10.70;;
4389;SDS011;2209;48.982;8.406;2023-10-19T02:09:39;11.40;;;10.30;;
4389;SDS011;2209;48.982;8.406;2023-10-19T02:12:01;13.13;;;11.83;;
4389;SDS011;2209;48.982;8.406;2023-10-19T02:14:26;12.07;;;11.00;;
4389;SDS011;2209;48.982;8.406;2023-10-19T02:16:50;13.77;;;12.47;;
4389;SDS011;2209;48.982;8.406;2023-10-19T02:19:13;11.80;;;10.60;;
4389;SDS011;2209;48.982;8.406;2023-10-19T02:21:34;12.33;;;11.03;;
4389;SDS011;2209;48.982;8.406;2023-10-19T02:24:00;12.53;;;11.50;;
4389;SDS011;2209;48.982;8.406;2023-10-19T02:26:22;11.47;;;10.27;;
4389;SDS011;2209;48.982;8.406;2023-10-19T02:28:46;12.97;;;11.87;;
4389;SDS011;2209;48.982;8.406;2023-10-19T02:31:12;12.03;;;11.00;;
4389;SDS011;2209;48.982;8.406;2023-10-19T02:33:36;14.20;;;12.80;;
4389;SDS011;2209;48.982;8.406;2023-10-19T02:35:59;13.33;;;12.07;;
4389;SDS011;2209;48.982;8.406;2023-10-19T02:38:20;12.67;;;11.47;;
4389;SDS011;2209;48.982;8.406;2023-10-19T02:40:42;12.83;;;11.30;;
4389;SDS011;2209;48.982;8.406;2023-10-19T02:43:04;10.80;;;9.90;;
4389;SDS011;2209;48.982;8.406;2023-10-19T02:45:26;11.27;;;10.20;;
4389;SDS011;2209;48.982;8.406;2023-10-19T02:47:52;12.40;;;11.17;;
4389;SDS011;2209;48.982;8.406;2023-10-19T02:50:14;11.47;;;10.30;;
4389;SDS011;2209;48.982;8.406;2023-10-19T02:52:37;12.90;;;11.70;;
4389;SDS011;2209;48.982;8.406;2023-10-19T02:54:59;13.30;;;11.90;;
4389;SDS011;2209;48.982;8.406;2023-10-19T02:57:20;14.10;;;12.70;;
4389;SDS011;2209;48.982;8.406;2023-10-19T02:59:42;14.50;;;13.10;;
4389;SDS011;2209;48.982;8.406;2023-10-19T03:02:07;12.73;;;11.53;;
4389;SDS011;2209;48.982;8.406;2023-10-19T03:04:38;14.13;;;12.23;;
4389;SDS011;2209;48.982;8.406;2023-10-19T03:07:01;14.00;;;12.30;;
4389;SDS011;2209;48.982;8.406;2023-10-19T03:09:24;14.13;;;12.67;;
4389;SDS011;2209;48.982;8.406;2023-10-19T03:11:50;14.03;;;12.73;;
4389;SDS011;2209;48.982;8.406;2023-10-19T03:14:15;13.10;;;11.90;;
4389;SDS011;2209;48.982;8.406;2023-10-19T03:16:37;14.70;;;13.20;;
4389;SDS011;2209;48.982;8.406;2023-10-19T03:19:01;14.43;;;12.97;;
4389;SDS011;2209;48.982;8.406;2023-10-19T03:21:25;13.50;;;11.87;;
4389;SDS011;2209;48.982;8.406;2023-10-19T03:23:48;15.33;;;12.87;;
4389;SDS011;2209;48.982;8.406;2023-10-19T03:26:10;13.67;;;12.37;;
4389;SDS011;2209;48.982;8.406;2023-10-19T03:28:46;15.20;;;13.70;;
4389;SDS011;2209;48.982;8.406;2023-10-19T03:31:08;12.93;;;11.73;;
4389;SDS011;2209;48.982;8.406;2023-10-19T03:33:38;15.87;;;14.30;;
4389;SDS011;2209;48.982;8.406;2023-10-19T03:36:01;13.47;;;12.10;;
4389;SDS011;2209;48.982;8.406;2023-10-19T03:38:25;12.40;;;11.20;;
4389;SDS011;2209;48.982;8.406;2023-10-19T03:40:52;11.83;;;10.83;;
4389;SDS011;2209;48.982;8.406;2023-10-19T03:43:20;12.10;;;11.00;;
4389;SDS011;2209;48.982;8.406;2023-10-19T03:45:43;11.90;;;10.83;;
4389;SDS011;2209;48.982;8.406;2023-10-19T03:48:11;13.20;;;11.90;;
4389;SDS011;2209;48.982;8.406;2023-10-19T03:50:33;13.70;;;12.30;;
4389;SDS011;2209;48.982;8.406;2023-10-19T03:52:57;11.93;;;10.83;;
4389;SDS011;2209;48.982;8.406;2023-10-19T03:55:20;12.37;;;11.10;;
4389;SDS011;2209;48.982;8.406;2023-10-19T03:57:43;12.80;;;11.57;;
4389;SDS011;2209;48.982;8.406;2023-10-19T04:00:11;12.30;;;11.13;;
4389;SDS011;2209;48.982;8.406;2023-10-19T04:02:36;14.03;;;12.63;;
4389;SDS011;2209;48.982;8.406;2023-10-19T04:04:59;13.17;;;12.07;;
4389;SDS011;2209;48.982;8.406;2023-10-19T04:07:21;12.90;;;11.60;;
4389;SDS011;2209;48.982;8.406;2023-10-19T04:09:45;12.80;;;11.57;;
4389;SDS011;2209;48.982;8.406;2023-10-19T04:12:30;12.20;;;11.00;;
4389;SDS011;2209;48.982;8.406;2023-10-19T04:14:53;13.23;;;12.03;;
4389;SDS011;2209;48.982;8.406;2023-10-19T04:17:15;14.43;;;12.87;;
4389;SDS011;2209;48.982;8.406;2023-10-19T04:19:41;11.93;;;10.70;;
4389;SDS011;2209;48.982;8.406;2023-10-19T04:22:04;12.40;;;11.20;;
4389;SDS011;2209;48.982;8.406;2023-10-19T04:24:26;12.13;;;11.03;;
4389;SDS011;2209;48.982;8.406;2023-10-19T04:26:48;12.23;;;11.10;;
4389;SDS011;2209;48.982;8.406;2023-10-19T04:29:11;11.53;;;10.43;;
4389;SDS011;2209;48.982;8.406;2023-10-19T04:31:37;12.60;;;10.90;;
4389;SDS011;2209;48.982;8.406;2023-10-19T04:34:09;12.03;;;10.90;;
4389;SDS011;2209;48.982;8.406;2023-10-19T04:36:31;10.70;;;9.77;;
4389;SDS011;2209;48.982;8.406;2023-10-19T04:38:54;12.83;;;11.53;;
4389;SDS011;2209;48.982;8.406;2023-10-19T04:41:16;11.00;;;10.00;;
4389;SDS011;2209;48.982;8.406;2023-10-19T04:43:39;11.70;;;10.70;;
4389;SDS011;2209;48.982;8.406;2023-10-19T04:46:08;12.87;;;11.30;;
4389;SDS011;2209;48.982;8.406;2023-10-19T04:48:32;10.50;;;9.60;;
4389;SDS011;2209;48.982;8.406;2023-10-19T04:50:56;13.07;;;10.50;;
4389;SDS011;2209;48.982;8.406;2023-10-19T04:53:18;11.60;;;10.50;;
4389;SDS011;2209;48.982;8.406;2023-10-19T04:55:40;12.97;;;11.60;;
4389;SDS011;2209;48.982;8.406;2023-10-19T04:58:02;11.57;;;10.47;;
4389;SDS011;2209;48.982;8.406;2023-10-19T05:00:26;13.00;;;11.00;;
4389;SDS011;2209;48.982;8.406;2023-10-19T05:02:49;11.10;;;9.23;;
4389;SDS011;2209;48.982;8.406;2023-10-19T05:05:12;11.67;;;10.60;;
4389;SDS011;2209;48.982;8.406;2023-10-19T05:07:37;11.50;;;10.40;;
4389;SDS011;2209;48.982;8.406;2023-10-19T05:09:59;12.50;;;10.27;;
4389;SDS011;2209;48.982;8.406;2023-10-19T05:12:22;10.43;;;9.53;;
4389;SDS011;2209;48.982;8.406;2023-10-19T05:14:44;11.30;;;10.10;;
4389;SDS011;2209;48.982;8.406;2023-10-19T05:17:07;12.17;;;9.50;;
4389;SDS011;2209;48.982;8.406;2023-10-19T05:19:31;12.30;;;11.10;;
4389;SDS011;2209;48.982;8.406;2023-10-19T05:21:53;10.90;;;9.80;;
4389;SDS011;2209;48.982;8.406;2023-10-19T05:24:16;12.17;;;9.63;;
4389;SDS011;2209;48.982;8.406;2023-10-19T05:26:38;11.07;;;10.07;;
4389;SDS011;2209;48.982;8.406;2023-10-19T05:29:00;12.20;;;11.07;;
4389;SDS011;2209;48.982;8.406;2023-10-19T05:31:22;9.43;;;8.63;;
4389;SDS011;2209;48.982;8.406;2023-10-19T05:33:45;9.83;;;8.90;;
4389;SDS011;2209;48.982;8.406;2023-10-19T05:36:10;8.87;;;8.10;;
4389;SDS011;2209;48.982;8.406;2023-10-19T05:38:32;10.00;;;9.10;;
4389;SDS011;2209;48.982;8.406;2023-10-19T05:40:56;8.87;;;7.97;;
4389;SDS011;2209;48.982;8.406;2023-10-19T05:43:19;11.33;;;10.23;;
4389;SDS011;2209;48.982;8.406;2023-10-19T05:45:41;10.60;;;9.67;;
4389;SDS011;2209;48.982;8.406;2023-10-19T05:48:03;10.13;;;7.90;;
4389;SDS011;2209;48.982;8.406;2023-10-19T05:50:26;9.90;;;8.90;;
4389;SDS011;2209;48.982;8.406;2023-10-19T05:52:50;9.87;;;9.00;;
4389;SDS011;2209;48.982;8.406;2023-10-19T05:55:13;8.80;;;8.10;;
4389;SDS011;2209;48.982;8.406;2023-10-19T05:57:35;10.00;;;8.43;;
4389;SDS011;2209;48.982;8.406;2023-10-19T06:00:00;9.07;;;8.17;;
4389;SDS011;2209;48.982;8.406;2023-10-19T06:02:25;9.00;;;8.20;;
4389;SDS011;2209;48.982;8.406;2023-10-19T06:04:47;8.10;;;7.40;;
4389;SDS011;2209;48.982;8.406;2023-10-19T06:07:09;9.37;;;8.17;;
4389;SDS011;2209;48.982;8.406;2023-10-19T06:09:33;9.27;;;8.37;;
4389;SDS011;2209;48.982;8.406;2023-10-19T06:11:56;8.60;;;7.80;;
4389;SDS011;2209;48.982;8.406;2023-10-19T06:14:18;8.30;;;7.60;;
4389;SDS011;2209;48.982;8.406;2023-10-19T06:16:41;9.60;;;8.70;;
4389;SDS011;2209;48.982;8.406;2023-10-19T06:19:03;8.53;;;7.83;;
4389;SDS011;2209;48.982;8.406;2023-10-19T06:21:25;9.07;;;8.27;;
4389;SDS011;2209;48.982;8.406;2023-10-19T06:23:47;8.20;;;7.50;;
4389;SDS011;2209;48.982;8.406;2023-10-19T06:26:12;8.90;;;8.10;;
4389;SDS011;2209;48.982;8.406;2023-10-19T06:28:35;14.23;;;8.83;;
4389;SDS011;2209;48.982;8.406;2023-10-19T06:30:59;9.80;;;8.90;;
4389;SDS011;2209;48.982;8.406;2023-10-19T06:33:21;9.27;;;8.57;;
4389;SDS011;2209;48.982;8.406;2023-10-19T06:35:44;8.87;;;8.17;;
4389;SDS011;2209;48.982;8.406;2023-10-19T06:38:06;7.90;;;7.30;;
4389;SDS011;2209;48.982;8.406;2023-10-19T06:40:29;9.07;;;8.27;;
4389;SDS011;2209;48.982;8.406;2023-10-19T06:42:54;9.80;;;8.90;;
4389;SDS011;2209;48.982;8.406;2023-10-19T06:45:17;10.30;;;9.40;;
4389;SDS011;2209;48.982;8.406;2023-10-19T06:47:40;9.50;;;8.70;;
4389;SDS011;2209;48.982;8.406;2023-10-19T06:50:04;9.30;;;8.40;;
4389;SDS011;2209;48.982;8.406;2023-10-19T06:52:28;11.23;;;8.30;;
4389;SDS011;2209;48.982;8.406;2023-10-19T06:54:50;8.80;;;7.90;;
4389;SDS011;2209;48.982;8.406;2023-10-19T06:57:12;9.97;;;8.97;;
4389;SDS011;2209;48.982;8.406;2023-10-19T06:59:36;8.13;;;7.37;;
4389;SDS011;2209;48.982;8.406;2023-10-19T07:01:59;9.83;;;8.93;;
4389;SDS011;2209;48.982;8.406;2023-10-19T07:04:22;8.73;;;8.00;;
4389;SDS011;2209;48.982;8.406;2023-10-19T07:06:44;12.43;;;9.60;;
4389;SDS011;2209;48.982;8.406;2023-10-19T07:09:08;10.23;;;9.30;;
4389;SDS011;2209;48.982;8.406;2023-10-19T07:11:31;12.40;;;9.33;;
4389;SDS011;2209;48.982;8.406;2023-10-19T07:13:53;12.40;;;10.60;;
4389;SDS011;2209;48.982;8.406;2023-10-19T07:16:17;9.93;;;8.97;;
4389;SDS011;2209;48.982;8.406;2023-10-19T07:18:40;11.00;;;9.90;;
4389;SDS011;2209;48.982;8.406;2023-10-19T07:21:02;11.30;;;9.30;;
4389;SDS011;2209;48.982;8.406;2023-10-19T07:23:25;10.10;;;9.20;;
4389;SDS011;2209;48.982;8.406;2023-10-19T07:25:49;11.50;;;10.50;;
4389;SDS011;2209;48.982;8.406;2023-10-19T07:28:15;15.87;;;9.60;;
4389;SDS011;2209;48.982;8.406;2023-10-19T07:30:37;10.20;;;9.20;;
4389;SDS011;2209;48.982;8.406;2023-10-19T07:33:02;12.37;;;9.90;;
4389;SDS011;2209;48.982;8.406;2023-10-19T07:35:25;10.90;;;9.80;;
4389;SDS011;2209;48.982;8.406;2023-10-19T07:37:47;11.37;;;10.27;;
4389;SDS011;2209;48.982;8.406;2023-10-19T07:40:10;11.87;;;10.73;;
4389;SDS011;2209;48.982;8.406;2023-10-19T07:42:34;11.70;;;9.77;;
4389;SDS011;2209;48.982;8.406;2023-10-19T07:44:57;12.60;;;11.30;;
4389;SDS011;2209;48.982;8.406;2023-10-19T07:47:19;13.73;;;11.40;;
4389;SDS011;2209;48.982;8.406;2023-10-19T07:49:43;12.00;;;10.53;;
4389;SDS011;2209;48.982;8.406;2023-10-19T07:52:08;14.07;;;11.20;;
4389;SDS011;2209;48.982;8.406;2023-10-19T07:54:31;12.00;;;10.70;;
4389;SDS011;2209;48.982;8.406;2023-10-19T07:56:54;11.13;;;9.93;;
4389;SDS011;2209;48.982;8.406;2023-10-19T07:59:18;12.00;;;10.80;;
4389;SDS011;2209;48.982;8.406;2023-10-19T08:01:40;11.60;;;10.43;;
4389;SDS011;2209;48.982;8.406;2023-10-19T08:04:02;12.17;;;10.60;;
4389;SDS011;2209;48.982;8.406;2023-10-19T08:06:27;11.80;;;10.70;;
4389;SDS011;2209;48.982;8.406;2023-10-19T08:08:49;12.20;;;11.10;;
4389;SDS011;2209;48.982;8.406;2023-10-19T08:11:11;12.23;;;11.03;;
4389;SDS011;2209;48.982;8.406;2023-10-19T08:13:33;14.60;;;10.73;;
4389;SDS011;2209;48.982;8.406;2023-10-19T08:15:56;12.53;;;11.33;;
4389;SDS011;2209;48.982;8.406;2023-10-19T08:18:18;16.57;;;13.40;;
4389;SDS011;2209;48.982;8.406;2023-10-19T08:20:40;13.40;;;11.97;;
4389;SDS011;2209;48.982;8.406;2023-10-19T08:23:06;13.30;;;11.90;;
4389;SDS011;2209;48.982;8.406;2023-10-19T08:25:29;12.80;;;11.30;;
4389;SDS011;2209;48.982;8.406;2023-10-19T08:27:51;14.27;;;11.03;;
4389;SDS011;2209;48.982;8.406;2023-10-19T08:30:17;12.80;;;11.40;;
4389;SDS011;2209;48.982;8.406;2023-10-19T08:32:41;13.40;;;12.10;;
4389;SDS011;2209;48.982;8.406;2023-10-19T08:35:03;14.90;;;11.63;;
4389;SDS011;2209;48.982;8.406;2023-10-19T08:37:26;15.73;;;14.13;;
4389;SDS011;2209;48.982;8.406;2023-10-19T08:39:49;15.10;;;13.60;;
4389;SDS011;2209;48.982;8.406;2023-10-19T08:42:11;15.10;;;13.50;;
4389;SDS011;2209;48.982;8.406;2023-10-19T08:44:33;13.87;;;12.57;;
4389;SDS011;2209;48.982;8.406;2023-10-19T08:46:57;14.47;;;12.37;;
4389;SDS011;2209;48.982;8.406;2023-10-19T08:49:19;13.00;;;11.70;;
4389;SDS011;2209;48.982;8.406;2023-10-19T08:51:43;14.07;;;12.77;;
4389;SDS011;2209;48.982;8.406;2023-10-19T08:54:06;13.73;;;12.27;;
4389;SDS011;2209;48.982;8.406;2023-10-19T08:56:32;14.10;;;12.80;;
4389;SDS011;2209;48.982;8.406;2023-10-19T08:58:55;13.00;;;11.70;;
4389;SDS011;2209;48.982;8.406;2023-10-19T09:01:18;16.47;;;12.43;;
4389;SDS011;2209;48.982;8.406;2023-10-19T09:03:40;12.57;;;11.37;;
4389;SDS011;2209;48.982;8.406;2023-10-19T09:06:02;15.40;;;11.47;;
4389;SDS011;2209;48.982;8.406;2023-10-19T09:08:26;12.97;;;11.60;;
4389;SDS011;2209;48.982;8.406;2023-10-19T09:10:58;12.27;;;10.43;;
4389;SDS011;2209;48.982;8.406;2023-10-19T09:13:31;12.47;;;11.27;;
4389;SDS011;2209;48.982;8.406;2023-10-19T09:16:06;13.13;;;11.30;;
4389;SDS011;2209;48.982;8.406;2023-10-19T09:18:30;14.03;;;12.70;;
4389;SDS011;2209;48.982;8.406;2023-10-19T09:20:52;14.77;;;13.33;;
4389;SDS011;2209;48.982;8.406;2023-10-19T09:23:16;12.97;;;11.77;;
4389;SDS011;2209;48.982;8.406;2023-10-19T09:25:38;14.00;;;12.63;;
4389;SDS011;2209;48.982;8.406;2023-10-19T09:28:00;15.20;;;12.83;;
4389;SDS011;2209;48.982;8.406;2023-10-19T09:30:24;16.90;;;14.50;;
4389;SDS011;2209;48.982;8.406;2023-10-19T09:32:48;14.40;;;12.90;;
4389;SDS011;2209;48.982;8.406;2023-10-19T09:35:11;14.23;;;12.93;;
4389;SDS011;2209;48.982;8.406;2023-10-19T09:37:35;14.77;;;13.27;;
4389;SDS011;2209;48.982;8.406;2023-10-19T09:39:58;13.53;;;12.23;;
4389;SDS011;2209;48.982;8.406;2023-10-19T09:42:21;14.03;;;12.63;;
4389;SDS011;2209;48.982;8.406;2023-10-19T09:44:45;14.13;;;12.60;;
4389;SDS011;2209;48.982;8.406;2023-10-19T09:47:11;15.50;;;13.57;;
4389;SDS011;2209;48.982;8.406;2023-10-19T09:49:34;15.20;;;13.70;;
4389;SDS011;2209;48.982;8.406;2023-10-19T09:51:56;15.77;;;12.80;;
4389;SDS011;2209;48.982;8.406;2023-10-19T09:54:20;15.70;;;13.23;;
4389;SDS011;2209;48.982;8.406;2023-10-19T09:56:49;14.00;;;12.70;;
4389;SDS011;2209;48.982;8.406;2023-10-19T09:59:18;13.97;;;12.57;;
4389;SDS011;2209;48.982;8.406;2023-10-19T10:04:31;12.80;;;10.63;;
4389;SDS011;2209;48.982;8.406;2023-10-19T10:06:58;13.30;;;11.90;;
4389;SDS011;2209;48.982;8.406;2023-10-19T10:09:21;14.40;;;13.10;;
4389;SDS011;2209;48.982;8.406;2023-10-19T10:11:43;17.87;;;12.70;;
4389;SDS011;2209;48.982;8.406;2023-10-19T10:14:19;13.30;;;11.90;;
4389;SDS011;2209;48.982;8.406;2023-10-19T10:16:44;13.87;;;12.50;;
4389;SDS011;2209;48.982;8.406;2023-10-19T10:19:06;14.03;;;12.60;;
4389;SDS011;2209;48.982;8.406;2023-10-19T10:21:30;13.67;;;12.37;;
4389;SDS011;2209;48.982;8.406;2023-10-19T10:23:54;14.07;;;12.13;;
4389;SDS011;2209;48.982;8.406;2023-10-19T10:26:18;15.20;;;13.10;;
4389;SDS011;2209;48.982;8.406;2023-10-19T10:28:48;13.60;;;12.20;;
4389;SDS011;2209;48.982;8.406;2023-10-19T10:31:29;15.20;;;13.07;;
4389;SDS011;2209;48.982;8.406;2023-10-19T10:33:57;15.57;;;12.47;;
4389;SDS011;2209;48.982;8.406;2023-10-19T10:36:19;12.77;;;11.40;;
4389;SDS011;2209;48.982;8.406;2023-10-19T10:38:43;14.37;;;12.73;;
4389;SDS011;2209;48.982;8.406;2023-10-19T10:41:06;16.70;;;12.70;;
4389;SDS011;2209;48.982;8.406;2023-10-19T10:43:31;17.27;;;12.53;;
4389;SDS011;2209;48.982;8.406;2023-10-19T10:46:02;13.50;;;12.20;;
4389;SDS011;2209;48.982;8.406;2023-10-19T10:48:25;15.23;;;13.03;;
4389;SDS011;2209;48.982;8.406;2023-10-19T10:50:47;13.43;;;11.90;;
4389;SDS011;2209;48.982;8.406;2023-10-19T10:53:10;14.23;;;12.73;;
4389;SDS011;2209;48.982;8.406;2023-10-19T10:55:34;17.50;;;14.10;;
4389;SDS011;2209;48.982;8.406;2023-10-19T10:57:56;15.30;;;13.67;;
4389;SDS011;2209;48.982;8.406;2023-10-19T11:00:20;16.80;;;13.67;;
4389;SDS011;2209;48.982;8.406;2023-10-19T11:02:46;15.00;;;13.40;;
4389;SDS011;2209;48.982;8.406;2023-10-19T11:05:20;17.40;;;13.60;;
4389;SDS011;2209;48.982;8.406;2023-10-19T11:10:28;13.43;;;12.03;;
4389;SDS011;2209;48.982;8.406;2023-10-19T11:12:52;14.57;;;13.23;;
4389;SDS011;2209;48.982;8.406;2023-10-19T11:15:21;16.37;;;14.67;;
4389;SDS011;2209;48.982;8.406;2023-10-19T11:17:43;14.20;;;12.20;;
4389;SDS011;2209;48.982;8.406;2023-10-19T11:20:07;18.90;;;13.27;;
4389;SDS011;2209;48.982;8.406;2023-10-19T11:22:34;17.90;;;14.20;;
4389;SDS011;2209;48.982;8.406;2023-10-19T11:25:19;15.03;;;13.37;;
4389;SDS011;2209;48.982;8.406;2023-10-19T11:27:42;13.90;;;11.40;;
4389;SDS011;2209;48.982;8.406;2023-10-19T11:30:07;15.90;;;13.23;;
4389;SDS011;2209;48.982;8.406;2023-10-19T11:32:36;14.37;;;12.60;;
4389;SDS011;2209;48.982;8.406;2023-10-19T11:35:00;15.83;;;13.80;;
4389;SDS011;2209;48.982;8.406;2023-10-19T11:37:22;15.33;;;13.80;;
4389;SDS011;2209;48.982;8.406;2023-10-19T11:39:44;18.90;;;13.23;;
4389;SDS011;2209;48.982;8.406;2023-10-19T11:42:07;19.60;;;15.13;;
4389;SDS011;2209;48.982;8.406;2023-10-19T11:44:30;18.70;;;13.60;;
4389;SDS011;2209;48.982;8.406;2023-10-19T11:46:54;15.80;;;13.17;;
4389;SDS011;2209;48.982;8.406;2023-10-19T11:49:17;18.43;;;13.53;;
4389;SDS011;2209;48.982;8.406;2023-10-19T11:51:40;14.70;;;13.20;;
4389;SDS011;2209;48.982;8.406;2023-10-19T11:54:04;15.33;;;13.60;;
4389;SDS011;2209;48.982;8.406;2023-10-19T11:56:27;16.00;;;14.43;;
4389;SDS011;2209;48.982;8.406;2023-10-19T11:58:49;17.70;;;13.90;;
4389;SDS011;2209;48.982;8.406;2023-10-19T12:01:11;21.07;;;17.40;;
4389;SDS011;2209;48.982;8.406;2023-10-19T12:03:34;19.03;;;17.00;;
4389;SDS011;2209;48.982;8.406;2023-10-19T12:05:57;21.93;;;16.53;;
4389;SDS011;2209;48.982;8.406;2023-10-19T12:08:19;22.47;;;18.10;;
4389;SDS011;2209;48.982;8.406;2023-10-19T12:10:42;23.73;;;19.70;;
4389;SDS011;2209;48.982;8.406;2023-10-19T12:13:04;19.97;;;17.50;;
4389;SDS011;2209;48.982;8.406;2023-10-19T12:15:29;25.10;;;18.80;;
4389;SDS011;2209;48.982;8.406;2023-10-19T12:17:52;20.50;;;18.33;;
4389;SDS011;2209;48.982;8.406;2023-10-19T12:20:16;26.07;;;20.43;;
4389;SDS011;2209;48.982;8.406;2023-10-19T12:22:42;22.40;;;19.87;;
4389;SDS011;2209;48.982;8.406;2023-10-19T12:25:04;27.93;;;22.57;;
4389;SDS011;2209;48.982;8.406;2023-10-19T12:27:26;25.53;;;21.97;;
4389;SDS011;2209;48.982;8.406;2023-10-19T12:29:49;24.37;;;20.53;;
4389;SDS011;2209;48.982;8.406;2023-10-19T12:32:12;27.00;;;21.03;;
4389;SDS011;2209;48.982;8.406;2023-10-19T12:34:34;22.10;;;18.97;;
4389;SDS011;2209;48.982;8.406;2023-10-19T12:36:58;26.07;;;19.33;;
4389;SDS011;2209;48.982;8.406;2023-10-19T12:39:20;23.67;;;18.73;;
4389;SDS011;2209;48.982;8.406;2023-10-19T12:42:00;20.37;;;18.00;;
4389;SDS011;2209;48.982;8.406;2023-10-19T12:44:23;23.70;;;17.60;;
4389;SDS011;2209;48.982;8.406;2023-10-19T12:46:49;25.67;;;18.70;;
4389;SDS011;2209;48.982;8.406;2023-10-19T12:49:13;23.03;;;18.07;;
4389;SDS011;2209;48.982;8.406;2023-10-19T12:51:38;23.30;;;17.50;;
4389;SDS011;2209;48.982;8.406;2023-10-19T12:54:04;23.17;;;19.23;;
4389;SDS011;2209;48.982;8.406;2023-10-19T12:56:30;20.90;;;17.17;;
4389;SDS011;2209;48.982;8.406;2023-10-19T12:58:55;22.10;;;18.53;;
4389;SDS011;2209;48.982;8.406;2023-10-19T13:01:18;18.57;;;16.47;;
4389;SDS011;2209;48.982;8.406;2023-10-19T13:03:41;23.47;;;18.37;;
4389;SDS011;2209;48.982;8.406;2023-10-19T13:06:05;21.13;;;18.60;;
4389;SDS011;2209;48.982;8.406;2023-10-19T13:08:28;21.17;;;18.13;;
4389;SDS011;2209;48.982;8.406;2023-10-19T13:10:52;20.20;;;17.30;;
4389;SDS011;2209;48.982;8.406;2023-10-19T13:13:14;24.10;;;20.33;;
4389;SDS011;2209;48.982;8.406;2023-10-19T13:15:37;25.63;;;20.40;;
4389;SDS011;2209;48.982;8.406;2023-10-19T13:18:00;21.10;;;18.97;;
4389;SDS011;2209;48.982;8.406;2023-10-19T13:20:24;21.03;;;18.43;;
4389;SDS011;2209;48.982;8.406;2023-10-19T13:22:46;20.73;;;18.63;;
4389;SDS011;2209;48.982;8.406;2023-10-19T13:25:08;20.50;;;17.97;;
4389;SDS011;2209;48.982;8.406;2023-10-19T13:27:34;27.20;;;18.77;;
4389;SDS011;2209;48.982;8.406;2023-10-19T13:29:56;23.33;;;18.63;;
4389;SDS011;2209;48.982;8.406;2023-10-19T13:32:18;23.40;;;19.90;;
4389;SDS011;2209;48.982;8.406;2023-10-19T13:34:40;29.00;;;21.93;;
4389;SDS011;2209;48.982;8.406;2023-10-19T13:37:03;28.07;;;20.50;;
4389;SDS011;2209;48.982;8.406;2023-10-19T13:39:26;26.83;;;21.23;;
4389;SDS011;2209;48.982;8.406;2023-10-19T13:41:48;29.23;;;21.13;;
4389;SDS011;2209;48.982;8.406;2023-10-19T13:44:12;27.30;;;22.10;;
4389;SDS011;2209;48.982;8.406;2023-10-19T13:46:34;26.50;;;22.40;;
4389;SDS011;2209;48.982;8.406;2023-10-19T13:48:56;29.53;;;22.40;;
4389;SDS011;2209;48.982;8.406;2023-10-19T13:51:19;31.00;;;22.20;;
4389;SDS011;2209;48.982;8.406;2023-10-19T13:53:41;23.77;;;21.27;;
4389;SDS011;2209;48.982;8.406;2023-10-19T13:56:07;26.93;;;21.47;;
4389;SDS011;2209;48.982;8.406;2023-10-19T13:58:30;29.53;;;20.50;;
4389;SDS011;2209;48.982;8.406;2023-10-19T14:00:55;24.70;;;20.60;;
4389;SDS011;2209;48.982;8.406;2023-10-19T14:03:17;23.67;;;19.67;;
4389;SDS011;2209;48.982;8.406;2023-10-19T14:05:42;27.97;;;20.40;;
4389;SDS011;2209;48.982;8.406;2023-10-19T14:08:08;27.67;;;21.37;;
4389;SDS011;2209;48.982;8.406;2023-10-19T14:10:31;29.60;;;22.30;;
4389;SDS011;2209;48.982;8.406;2023-10-19T14:12:53;23.87;;;21.30;;
4389;SDS011;2209;48.982;8.406;2023-10-19T14:15:16;27.13;;;19.23;;
4389;SDS011;2209;48.982;8.406;2023-10-19T14:17:40;24.37;;;19.90;;
4389;SDS011;2209;48.982;8.406;2023-10-19T14:20:03;23.17;;;18.97;;
4389;SDS011;2209;48.982;8.406;2023-10-19T14:22:26;26.63;;;23.43;;
4389;SDS011;2209;48.982;8.406;2023-10-19T14:24:48;29.10;;;21.40;;
4389;SDS011;2209;48.982;8.406;2023-10-19T14:27:10;27.10;;;22.17;;
4389;SDS011;2209;48.982;8.406;2023-10-19T14:29:34;24.00;;;20.73;;
4389;SDS011;2209;48.982;8.406;2023-10-19T14:31:56;24.20;;;20.40;;
4389;SDS011;2209;48.982;8.406;2023-10-19T14:34:20;25.60;;;18.90;;
4389;SDS011;2209;48.982;8.406;2023-10-19T14:36:42;27.07;;;20.90;;